Terminal Aerodrome Forecast
Issued by NWS Sterling, VA

Current Version | Previous Version | Text Only | Print | Product List | Glossary Off
Versions: 1 2 3 4 5 6 7 8 9 10 11 12 13 14 15 16 17 18 19 20 21 22 23 24

000
FTUS41 KLWX 221504 AAA
TAFMRB
TAF AMD
KMRB 221504Z 2215/2312 06004KT 3SM -DZ BR OVC006
     FM221800 06005KT 5SM -DZ OVC008
     FM222300 06006KT 5SM -RA BKN008 OVC015
     FM230600 07010G18KT 5SM -RA BKN008 OVC015
     FM230900 07014G25KT 5SM -RA BKN008 OVC015=

USA.gov is the U.S. government's official web portal to all federal, state and local government web resources and services.